sensor_id;sensor_type;location;lat;lon;timestamp;P1;durP1;ratioP1;P2;durP2;ratioP2
22904;SDS011;11619;50.140;8.518;2023-06-24T00:00:14;6.25;;;5.65;;
22904;SDS011;11619;50.140;8.518;2023-06-24T00:02:42;8.15;;;4.95;;
22904;SDS011;11619;50.140;8.518;2023-06-24T00:05:11;5.70;;;5.10;;
22904;SDS011;11619;50.140;8.518;2023-06-24T00:07:37;5.25;;;4.70;;
22904;SDS011;11619;50.140;8.518;2023-06-24T00:10:11;5.90;;;5.27;;
22904;SDS011;11619;50.140;8.518;2023-06-24T00:12:39;6.32;;;5.32;;
22904;SDS011;11619;50.140;8.518;2023-06-24T00:15:07;5.65;;;4.45;;
22904;SDS011;11619;50.140;8.518;2023-06-24T00:17:35;6.65;;;4.65;;
22904;SDS011;11619;50.140;8.518;2023-06-24T00:20:02;5.40;;;4.97;;
22904;SDS011;11619;50.140;8.518;2023-06-24T00:22:31;5.85;;;5.25;;
22904;SDS011;11619;50.140;8.518;2023-06-24T00:24:57;5.70;;;5.20;;
22904;SDS011;11619;50.140;8.518;2023-06-24T00:27:25;5.00;;;4.50;;
22904;SDS011;11619;50.140;8.518;2023-06-24T00:29:51;5.68;;;5.18;;
22904;SDS011;11619;50.140;8.518;2023-06-24T00:32:18;15.52;;;5.75;;
22904;SDS011;11619;50.140;8.518;2023-06-24T00:34:44;5.00;;;4.60;;
22904;SDS011;11619;50.140;8.518;2023-06-24T00:37:11;5.28;;;4.70;;
22904;SDS011;11619;50.140;8.518;2023-06-24T00:39:37;6.45;;;5.70;;
22904;SDS011;11619;50.140;8.518;2023-06-24T00:42:04;6.25;;;5.68;;
22904;SDS011;11619;50.140;8.518;2023-06-24T00:44:31;6.45;;;5.78;;
22904;SDS011;11619;50.140;8.518;2023-06-24T00:46:57;6.18;;;5.45;;
22904;SDS011;11619;50.140;8.518;2023-06-24T00:49:24;9.02;;;5.15;;
22904;SDS011;11619;50.140;8.518;2023-06-24T00:51:51;5.95;;;5.43;;
22904;SDS011;11619;50.140;8.518;2023-06-24T00:54:17;5.50;;;5.00;;
22904;SDS011;11619;50.140;8.518;2023-06-24T00:56:45;5.72;;;5.22;;
22904;SDS011;11619;50.140;8.518;2023-06-24T00:59:13;5.78;;;5.18;;
22904;SDS011;11619;50.140;8.518;2023-06-24T01:01:41;5.60;;;5.10;;
22904;SDS011;11619;50.140;8.518;2023-06-24T01:04:08;5.45;;;4.95;;
22904;SDS011;11619;50.140;8.518;2023-06-24T01:06:35;6.10;;;5.50;;
22904;SDS011;11619;50.140;8.518;2023-06-24T01:09:02;6.43;;;5.63;;
22904;SDS011;11619;50.140;8.518;2023-06-24T01:11:31;5.30;;;4.85;;
22904;SDS011;11619;50.140;8.518;2023-06-24T01:13:57;6.72;;;4.88;;
22904;SDS011;11619;50.140;8.518;2023-06-24T01:16:26;5.97;;;5.28;;
22904;SDS011;11619;50.140;8.518;2023-06-24T01:18:56;5.93;;;5.28;;
22904;SDS011;11619;50.140;8.518;2023-06-24T01:32:43;5.47;;;4.97;;
22904;SDS011;11619;50.140;8.518;2023-06-24T01:35:12;6.05;;;5.45;;
22904;SDS011;11619;50.140;8.518;2023-06-24T01:37:42;5.88;;;5.28;;
22904;SDS011;11619;50.140;8.518;2023-06-24T01:40:12;5.82;;;5.32;;
22904;SDS011;11619;50.140;8.518;2023-06-24T01:42:39;5.82;;;5.22;;
22904;SDS011;11619;50.140;8.518;2023-06-24T01:45:09;5.78;;;5.07;;
22904;SDS011;11619;50.140;8.518;2023-06-24T01:47:38;5.25;;;4.78;;
22904;SDS011;11619;50.140;8.518;2023-06-24T01:50:07;6.88;;;5.40;;
22904;SDS011;11619;50.140;8.518;2023-06-24T01:52:36;5.75;;;5.25;;
22904;SDS011;11619;50.140;8.518;2023-06-24T01:55:04;5.57;;;5.10;;
22904;SDS011;11619;50.140;8.518;2023-06-24T01:57:33;5.43;;;4.97;;
22904;SDS011;11619;50.140;8.518;2023-06-24T02:00:00;5.80;;;5.28;;
22904;SDS011;11619;50.140;8.518;2023-06-24T02:02:27;5.70;;;5.10;;
22904;SDS011;11619;50.140;8.518;2023-06-24T02:04:54;5.88;;;5.38;;
22904;SDS011;11619;50.140;8.518;2023-06-24T02:07:21;5.18;;;4.68;;
22904;SDS011;11619;50.140;8.518;2023-06-24T02:09:48;5.35;;;4.93;;
22904;SDS011;11619;50.140;8.518;2023-06-24T02:12:16;6.53;;;4.90;;
22904;SDS011;11619;50.140;8.518;2023-06-24T02:14:42;4.72;;;4.32;;
22904;SDS011;11619;50.140;8.518;2023-06-24T02:17:10;6.35;;;4.90;;
22904;SDS011;11619;50.140;8.518;2023-06-24T02:19:37;4.90;;;4.50;;
22904;SDS011;11619;50.140;8.518;2023-06-24T02:22:04;5.32;;;4.82;;
22904;SDS011;11619;50.140;8.518;2023-06-24T02:24:36;5.60;;;5.10;;
22904;SDS011;11619;50.140;8.518;2023-06-24T02:27:04;5.20;;;4.70;;
22904;SDS011;11619;50.140;8.518;2023-06-24T02:29:31;5.10;;;4.60;;
22904;SDS011;11619;50.140;8.518;2023-06-24T02:31:58;5.45;;;4.88;;
22904;SDS011;11619;50.140;8.518;2023-06-24T02:34:25;5.65;;;5.15;;
22904;SDS011;11619;50.140;8.518;2023-06-24T02:36:51;5.15;;;4.65;;
22904;SDS011;11619;50.140;8.518;2023-06-24T02:39:18;5.57;;;4.93;;
22904;SDS011;11619;50.140;8.518;2023-06-24T02:41:44;5.60;;;5.10;;
22904;SDS011;11619;50.140;8.518;2023-06-24T02:44:13;6.50;;;5.20;;
22904;SDS011;11619;50.140;8.518;2023-06-24T02:46:44;6.28;;;5.40;;
22904;SDS011;11619;50.140;8.518;2023-06-24T02:49:12;5.68;;;5.18;;
22904;SDS011;11619;50.140;8.518;2023-06-24T02:51:40;7.38;;;5.32;;
22904;SDS011;11619;50.140;8.518;2023-06-24T02:54:07;6.32;;;4.72;;
22904;SDS011;11619;50.140;8.518;2023-06-24T02:56:34;7.45;;;4.95;;
22904;SDS011;11619;50.140;8.518;2023-06-24T02:59:01;6.10;;;5.43;;
22904;SDS011;11619;50.140;8.518;2023-06-24T03:01:28;6.10;;;5.35;;
22904;SDS011;11619;50.140;8.518;2023-06-24T03:03:55;5.00;;;4.50;;
22904;SDS011;11619;50.140;8.518;2023-06-24T03:06:22;5.70;;;5.10;;
22904;SDS011;11619;50.140;8.518;2023-06-24T03:08:50;5.30;;;4.80;;
22904;SDS011;11619;50.140;8.518;2023-06-24T03:11:16;5.00;;;4.47;;
22904;SDS011;11619;50.140;8.518;2023-06-24T03:13:43;5.40;;;4.90;;
22904;SDS011;11619;50.140;8.518;2023-06-24T03:16:10;5.20;;;4.70;;
22904;SDS011;11619;50.140;8.518;2023-06-24T03:18:41;4.95;;;4.53;;
22904;SDS011;11619;50.140;8.518;2023-06-24T03:21:08;5.72;;;5.13;;
22904;SDS011;11619;50.140;8.518;2023-06-24T03:23:35;5.28;;;4.78;;
22904;SDS011;11619;50.140;8.518;2023-06-24T03:26:01;6.65;;;5.03;;
22904;SDS011;11619;50.140;8.518;2023-06-24T03:28:29;5.20;;;4.70;;
22904;SDS011;11619;50.140;8.518;2023-06-24T03:30:59;6.05;;;4.93;;
22904;SDS011;11619;50.140;8.518;2023-06-24T03:33:26;5.00;;;4.60;;
22904;SDS011;11619;50.140;8.518;2023-06-24T03:35:53;5.35;;;4.90;;
22904;SDS011;11619;50.140;8.518;2023-06-24T03:38:20;4.82;;;4.43;;
22904;SDS011;11619;50.140;8.518;2023-06-24T03:40:47;5.63;;;5.13;;
22904;SDS011;11619;50.140;8.518;2023-06-24T03:43:14;5.85;;;5.35;;
22904;SDS011;11619;50.140;8.518;2023-06-24T03:45:40;5.63;;;5.10;;
22904;SDS011;11619;50.140;8.518;2023-06-24T03:48:07;6.07;;;4.72;;
22904;SDS011;11619;50.140;8.518;2023-06-24T03:50:33;5.78;;;5.28;;
22904;SDS011;11619;50.140;8.518;2023-06-24T03:53:00;5.30;;;4.90;;
22904;SDS011;11619;50.140;8.518;2023-06-24T03:55:26;5.88;;;4.72;;
22904;SDS011;11619;50.140;8.518;2023-06-24T03:57:53;5.47;;;5.03;;
22904;SDS011;11619;50.140;8.518;2023-06-24T04:00:19;6.32;;;5.72;;
22904;SDS011;11619;50.140;8.518;2023-06-24T04:02:46;6.22;;;5.18;;
22904;SDS011;11619;50.140;8.518;2023-06-24T04:05:13;5.63;;;5.03;;
22904;SDS011;11619;50.140;8.518;2023-06-24T04:07:39;6.10;;;4.95;;
22904;SDS011;11619;50.140;8.518;2023-06-24T04:10:06;5.32;;;4.82;;
22904;SDS011;11619;50.140;8.518;2023-06-24T04:12:34;5.40;;;4.80;;
22904;SDS011;11619;50.140;8.518;2023-06-24T04:15:04;5.32;;;4.80;;
22904;SDS011;11619;50.140;8.518;2023-06-24T04:17:31;5.57;;;5.07;;
22904;SDS011;11619;50.140;8.518;2023-06-24T04:19:58;5.05;;;4.65;;
22904;SDS011;11619;50.140;8.518;2023-06-24T04:22:25;6.40;;;5.55;;
22904;SDS011;11619;50.140;8.518;2023-06-24T04:24:52;5.93;;;4.97;;
22904;SDS011;11619;50.140;8.518;2023-06-24T04:27:18;5.95;;;5.30;;
22904;SDS011;11619;50.140;8.518;2023-06-24T04:29:44;6.18;;;5.60;;
22904;SDS011;11619;50.140;8.518;2023-06-24T04:32:11;6.00;;;4.90;;
22904;SDS011;11619;50.140;8.518;2023-06-24T04:34:37;5.72;;;5.10;;
22904;SDS011;11619;50.140;8.518;2023-06-24T04:37:04;5.53;;;5.07;;
22904;SDS011;11619;50.140;8.518;2023-06-24T04:39:30;5.80;;;5.22;;
22904;SDS011;11619;50.140;8.518;2023-06-24T04:41:57;7.72;;;4.90;;
22904;SDS011;11619;50.140;8.518;2023-06-24T04:44:23;6.70;;;5.22;;
22904;SDS011;11619;50.140;8.518;2023-06-24T04:46:50;5.57;;;5.07;;
22904;SDS011;11619;50.140;8.518;2023-06-24T04:49:18;6.68;;;5.22;;
22904;SDS011;11619;50.140;8.518;2023-06-24T04:51:45;6.47;;;5.80;;
22904;SDS011;11619;50.140;8.518;2023-06-24T04:54:11;5.32;;;4.90;;
22904;SDS011;11619;50.140;8.518;2023-06-24T04:56:39;6.38;;;5.68;;
22904;SDS011;11619;50.140;8.518;2023-06-24T04:59:05;5.57;;;4.95;;
22904;SDS011;11619;50.140;8.518;2023-06-24T05:01:33;5.93;;;5.35;;
22904;SDS011;11619;50.140;8.518;2023-06-24T05:03:59;5.93;;;5.32;;
22904;SDS011;11619;50.140;8.518;2023-06-24T05:06:26;5.68;;;5.18;;
22904;SDS011;11619;50.140;8.518;2023-06-24T05:08:53;5.78;;;5.28;;
22904;SDS011;11619;50.140;8.518;2023-06-24T05:11:19;5.60;;;5.00;;
22904;SDS011;11619;50.140;8.518;2023-06-24T05:13:46;6.88;;;6.18;;
22904;SDS011;11619;50.140;8.518;2023-06-24T05:16:12;6.38;;;5.72;;
22904;SDS011;11619;50.140;8.518;2023-06-24T05:18:38;5.82;;;5.25;;
22904;SDS011;11619;50.140;8.518;2023-06-24T05:21:05;6.40;;;5.80;;
22904;SDS011;11619;50.140;8.518;2023-06-24T05:23:31;6.88;;;6.18;;
22904;SDS011;11619;50.140;8.518;2023-06-24T05:25:58;7.47;;;5.65;;
22904;SDS011;11619;50.140;8.518;2023-06-24T05:28:24;6.75;;;5.78;;
22904;SDS011;11619;50.140;8.518;2023-06-24T05:30:51;6.07;;;5.47;;
22904;SDS011;11619;50.140;8.518;2023-06-24T05:33:17;6.60;;;6.00;;
22904;SDS011;11619;50.140;8.518;2023-06-24T05:35:43;6.00;;;5.50;;
22904;SDS011;11619;50.140;8.518;2023-06-24T05:38:10;6.80;;;6.20;;
22904;SDS011;11619;50.140;8.518;2023-06-24T05:40:36;7.30;;;6.15;;
22904;SDS011;11619;50.140;8.518;2023-06-24T05:43:03;6.43;;;5.80;;
22904;SDS011;11619;50.140;8.518;2023-06-24T05:45:29;6.43;;;5.93;;
22904;SDS011;11619;50.140;8.518;2023-06-24T05:47:56;7.07;;;6.38;;
22904;SDS011;11619;50.140;8.518;2023-06-24T05:50:22;7.13;;;6.53;;
22904;SDS011;11619;50.140;8.518;2023-06-24T05:52:48;8.25;;;7.10;;
22904;SDS011;11619;50.140;8.518;2023-06-24T05:55:17;7.97;;;7.18;;
22904;SDS011;11619;50.140;8.518;2023-06-24T05:57:43;7.53;;;6.82;;
22904;SDS011;11619;50.140;8.518;2023-06-24T06:00:10;8.80;;;7.85;;
22904;SDS011;11619;50.140;8.518;2023-06-24T06:02:37;6.05;;;5.45;;
22904;SDS011;11619;50.140;8.518;2023-06-24T06:05:03;6.70;;;6.10;;
22904;SDS011;11619;50.140;8.518;2023-06-24T06:07:30;7.40;;;6.68;;
22904;SDS011;11619;50.140;8.518;2023-06-24T06:09:57;5.95;;;5.22;;
22904;SDS011;11619;50.140;8.518;2023-06-24T06:12:23;7.32;;;6.63;;
22904;SDS011;11619;50.140;8.518;2023-06-24T06:14:50;6.15;;;5.55;;
22904;SDS011;11619;50.140;8.518;2023-06-24T06:17:16;6.32;;;5.25;;
22904;SDS011;11619;50.140;8.518;2023-06-24T06:19:42;6.88;;;5.53;;
22904;SDS011;11619;50.140;8.518;2023-06-24T06:22:14;6.93;;;6.40;;
22904;SDS011;11619;50.140;8.518;2023-06-24T06:24:41;8.27;;;6.97;;
22904;SDS011;11619;50.140;8.518;2023-06-24T06:27:11;6.95;;;6.35;;
22904;SDS011;11619;50.140;8.518;2023-06-24T06:29:40;6.28;;;5.50;;
22904;SDS011;11619;50.140;8.518;2023-06-24T06:32:06;6.28;;;5.65;;
22904;SDS011;11619;50.140;8.518;2023-06-24T06:34:33;7.40;;;6.70;;
22904;SDS011;11619;50.140;8.518;2023-06-24T06:36:59;9.00;;;7.60;;
22904;SDS011;11619;50.140;8.518;2023-06-24T06:39:26;6.55;;;6.00;;
22904;SDS011;11619;50.140;8.518;2023-06-24T06:41:52;9.52;;;6.43;;
22904;SDS011;11619;50.140;8.518;2023-06-24T06:44:19;7.45;;;6.32;;
22904;SDS011;11619;50.140;8.518;2023-06-24T06:46:45;7.57;;;6.78;;
22904;SDS011;11619;50.140;8.518;2023-06-24T06:49:12;7.05;;;6.45;;
22904;SDS011;11619;50.140;8.518;2023-06-24T06:51:38;6.40;;;5.80;;
22904;SDS011;11619;50.140;8.518;2023-06-24T06:54:05;8.18;;;6.75;;
22904;SDS011;11619;50.140;8.518;2023-06-24T06:56:31;6.10;;;5.60;;
22904;SDS011;11619;50.140;8.518;2023-06-24T06:58:57;7.95;;;6.68;;
22904;SDS011;11619;50.140;8.518;2023-06-24T07:01:24;5.95;;;5.45;;
22904;SDS011;11619;50.140;8.518;2023-06-24T07:03:50;9.57;;;6.13;;
22904;SDS011;11619;50.140;8.518;2023-06-24T07:06:17;6.70;;;6.20;;
22904;SDS011;11619;50.140;8.518;2023-06-24T07:08:45;5.90;;;5.32;;
22904;SDS011;11619;50.140;8.518;2023-06-24T07:11:11;8.63;;;6.80;;
22904;SDS011;11619;50.140;8.518;2023-06-24T07:13:38;8.27;;;5.28;;
22904;SDS011;11619;50.140;8.518;2023-06-24T07:16:04;7.00;;;6.30;;
22904;SDS011;11619;50.140;8.518;2023-06-24T07:18:31;7.32;;;6.30;;
22904;SDS011;11619;50.140;8.518;2023-06-24T07:20:59;6.85;;;5.68;;
22904;SDS011;11619;50.140;8.518;2023-06-24T07:23:26;10.40;;;7.03;;
22904;SDS011;11619;50.140;8.518;2023-06-24T07:25:52;7.57;;;6.22;;
22904;SDS011;11619;50.140;8.518;2023-06-24T07:28:19;12.30;;;6.20;;
22904;SDS011;11619;50.140;8.518;2023-06-24T07:30:45;7.53;;;6.82;;
22904;SDS011;11619;50.140;8.518;2023-06-24T07:33:12;7.03;;;6.25;;
22904;SDS011;11619;50.140;8.518;2023-06-24T07:35:38;7.38;;;6.70;;
22904;SDS011;11619;50.140;8.518;2023-06-24T07:38:05;6.80;;;5.97;;
22904;SDS011;11619;50.140;8.518;2023-06-24T07:40:31;9.63;;;6.22;;
22904;SDS011;11619;50.140;8.518;2023-06-24T07:42:58;7.00;;;6.20;;
22904;SDS011;11619;50.140;8.518;2023-06-24T07:45:24;6.45;;;5.85;;
22904;SDS011;11619;50.140;8.518;2023-06-24T07:47:51;8.98;;;5.93;;
22904;SDS011;11619;50.140;8.518;2023-06-24T07:50:18;7.35;;;6.00;;
22904;SDS011;11619;50.140;8.518;2023-06-24T07:52:44;8.88;;;5.90;;
22904;SDS011;11619;50.140;8.518;2023-06-24T07:55:11;6.97;;;5.53;;
22904;SDS011;11619;50.140;8.518;2023-06-24T07:57:37;7.35;;;5.53;;
22904;SDS011;11619;50.140;8.518;2023-06-24T08:00:06;5.32;;;4.82;;
22904;SDS011;11619;50.140;8.518;2023-06-24T08:02:35;5.68;;;5.18;;
22904;SDS011;11619;50.140;8.518;2023-06-24T08:05:02;7.95;;;6.35;;
22904;SDS011;11619;50.140;8.518;2023-06-24T08:07:28;5.68;;;5.18;;
22904;SDS011;11619;50.140;8.518;2023-06-24T08:09:56;5.85;;;5.22;;
22904;SDS011;11619;50.140;8.518;2023-06-24T08:12:22;6.88;;;5.20;;
22904;SDS011;11619;50.140;8.518;2023-06-24T08:14:49;7.60;;;5.32;;
22904;SDS011;11619;50.140;8.518;2023-06-24T08:17:15;5.90;;;5.40;;
22904;SDS011;11619;50.140;8.518;2023-06-24T08:19:42;6.38;;;5.68;;
22904;SDS011;11619;50.140;8.518;2023-06-24T08:22:08;7.20;;;6.50;;
22904;SDS011;11619;50.140;8.518;2023-06-24T08:24:35;8.10;;;5.93;;
22904;SDS011;11619;50.140;8.518;2023-06-24T08:27:02;7.60;;;6.10;;
22904;SDS011;11619;50.140;8.518;2023-06-24T08:29:29;7.88;;;6.13;;
22904;SDS011;11619;50.140;8.518;2023-06-24T08:32:14;5.85;;;5.30;;
22904;SDS011;11619;50.140;8.518;2023-06-24T08:34:59;7.70;;;5.53;;
22904;SDS011;11619;50.140;8.518;2023-06-24T08:37:25;6.38;;;5.88;;
22904;SDS011;11619;50.140;8.518;2023-06-24T08:39:52;5.78;;;5.18;;
22904;SDS011;11619;50.140;8.518;2023-06-24T08:42:18;6.65;;;6.03;;
22904;SDS011;11619;50.140;8.518;2023-06-24T08:44:45;7.68;;;6.10;;
22904;SDS011;11619;50.140;8.518;2023-06-24T08:47:11;7.32;;;6.40;;
22904;SDS011;11619;50.140;8.518;2023-06-24T08:49:44;6.15;;;5.55;;
22904;SDS011;11619;50.140;8.518;2023-06-24T08:52:15;5.93;;;5.43;;
22904;SDS011;11619;50.140;8.518;2023-06-24T08:54:45;6.15;;;5.30;;
22904;SDS011;11619;50.140;8.518;2023-06-24T08:57:16;7.65;;;5.68;;
22904;SDS011;11619;50.140;8.518;2023-06-24T08:59:43;7.63;;;5.50;;
22904;SDS011;11619;50.140;8.518;2023-06-24T09:02:09;9.07;;;5.38;;
22904;SDS011;11619;50.140;8.518;2023-06-24T09:04:37;6.68;;;6.07;;
22904;SDS011;11619;50.140;8.518;2023-06-24T09:07:03;4.88;;;4.40;;
22904;SDS011;11619;50.140;8.518;2023-06-24T09:09:33;8.40;;;5.70;;
22904;SDS011;11619;50.140;8.518;2023-06-24T09:12:09;5.95;;;5.35;;
22904;SDS011;11619;50.140;8.518;2023-06-24T09:14:40;5.60;;;5.10;;
22904;SDS011;11619;50.140;8.518;2023-06-24T09:17:07;6.57;;;5.97;;
22904;SDS011;11619;50.140;8.518;2023-06-24T09:19:36;8.77;;;6.72;;
22904;SDS011;11619;50.140;8.518;2023-06-24T09:22:03;6.35;;;5.75;;
22904;SDS011;11619;50.140;8.518;2023-06-24T09:24:30;7.68;;;6.82;;
22904;SDS011;11619;50.140;8.518;2023-06-24T09:26:57;6.90;;;6.07;;
22904;SDS011;11619;50.140;8.518;2023-06-24T09:29:27;5.43;;;4.88;;
22904;SDS011;11619;50.140;8.518;2023-06-24T09:31:55;5.97;;;5.28;;
22904;SDS011;11619;50.140;8.518;2023-06-24T09:34:24;6.70;;;5.65;;
22904;SDS011;11619;50.140;8.518;2023-06-24T09:36:54;7.45;;;6.60;;
22904;SDS011;11619;50.140;8.518;2023-06-24T09:39:21;6.20;;;5.07;;
22904;SDS011;11619;50.140;8.518;2023-06-24T09:41:56;5.72;;;5.22;;
22904;SDS011;11619;50.140;8.518;2023-06-24T09:44:23;6.22;;;5.28;;
22904;SDS011;11619;50.140;8.518;2023-06-24T09:46:49;6.28;;;5.68;;
22904;SDS011;11619;50.140;8.518;2023-06-24T09:49:16;6.50;;;5.93;;
22904;SDS011;11619;50.140;8.518;2023-06-24T09:51:46;6.40;;;5.35;;
22904;SDS011;11619;50.140;8.518;2023-06-24T09:54:14;6.43;;;5.80;;
22904;SDS011;11619;50.140;8.518;2023-06-24T09:56:50;5.93;;;5.40;;
22904;SDS011;11619;50.140;8.518;2023-06-24T09:59:19;8.40;;;6.43;;
22904;SDS011;11619;50.140;8.518;2023-06-24T10:01:47;6.78;;;6.18;;
22904;SDS011;11619;50.140;8.518;2023-06-24T10:04:15;7.15;;;5.43;;
22904;SDS011;11619;50.140;8.518;2023-06-24T10:06:43;8.38;;;6.47;;
22904;SDS011;11619;50.140;8.518;2023-06-24T10:09:09;7.35;;;5.45;;
22904;SDS011;11619;50.140;8.518;2023-06-24T10:11:41;4.60;;;4.20;;
22904;SDS011;11619;50.140;8.518;2023-06-24T10:14:07;6.82;;;5.78;;
22904;SDS011;11619;50.140;8.518;2023-06-24T10:16:34;5.80;;;5.30;;
22904;SDS011;11619;50.140;8.518;2023-06-24T10:19:01;5.70;;;5.00;;
22904;SDS011;11619;50.140;8.518;2023-06-24T10:21:43;5.93;;;5.28;;
22904;SDS011;11619;50.140;8.518;2023-06-24T10:24:11;6.13;;;5.10;;
22904;SDS011;11619;50.140;8.518;2023-06-24T10:26:39;5.93;;;5.40;;
22904;SDS011;11619;50.140;8.518;2023-06-24T10:36:56;5.20;;;4.28;;
22904;SDS011;11619;50.140;8.518;2023-06-24T10:39:36;5.35;;;4.85;;
22904;SDS011;11619;50.140;8.518;2023-06-24T10:47:16;6.03;;;5.43;;
22904;SDS011;11619;50.140;8.518;2023-06-24T10:49:43;4.80;;;4.40;;
22904;SDS011;11619;50.140;8.518;2023-06-24T10:52:10;5.05;;;4.65;;
22904;SDS011;11619;50.140;8.518;2023-06-24T10:54:37;5.82;;;4.07;;
22904;SDS011;11619;50.140;8.518;2023-06-24T10:57:04;5.20;;;4.78;;
22904;SDS011;11619;50.140;8.518;2023-06-24T10:59:34;5.28;;;4.60;;
22904;SDS011;11619;50.140;8.518;2023-06-24T11:02:01;6.88;;;4.85;;
22904;SDS011;11619;50.140;8.518;2023-06-24T11:04:28;5.03;;;4.15;;
22904;SDS011;11619;50.140;8.518;2023-06-24T11:06:58;5.05;;;4.65;;
22904;SDS011;11619;50.140;8.518;2023-06-24T11:09:25;4.63;;;4.22;;
22904;SDS011;11619;50.140;8.518;2023-06-24T11:11:52;5.03;;;4.63;;
22904;SDS011;11619;50.140;8.518;2023-06-24T11:14:21;5.40;;;4.80;;
22904;SDS011;11619;50.140;8.518;2023-06-24T11:16:47;4.97;;;4.57;;
22904;SDS011;11619;50.140;8.518;2023-06-24T11:19:14;6.15;;;4.78;;
22904;SDS011;11619;50.140;8.518;2023-06-24T11:21:40;5.78;;;4.38;;
22904;SDS011;11619;50.140;8.518;2023-06-24T11:24:07;6.60;;;4.85;;
22904;SDS011;11619;50.140;8.518;2023-06-24T11:26:33;4.82;;;4.43;;
22904;SDS011;11619;50.140;8.518;2023-06-24T11:29:00;4.78;;;4.38;;
22904;SDS011;11619;50.140;8.518;2023-06-24T11:31:26;5.40;;;4.90;;
22904;SDS011;11619;50.140;8.518;2023-06-24T11:33:53;5.03;;;4.47;;
22904;SDS011;11619;50.140;8.518;2023-06-24T11:36:19;5.35;;;4.85;;
22904;SDS011;11619;50.140;8.518;2023-06-24T11:38:46;5.68;;;4.60;;
22904;SDS011;11619;50.140;8.518;2023-06-24T11:41:13;6.05;;;5.45;;
22904;SDS011;11619;50.140;8.518;2023-06-24T11:43:46;4.97;;;4.50;;
22904;SDS011;11619;50.140;8.518;2023-06-24T11:46:25;5.43;;;4.93;;
22904;SDS011;11619;50.140;8.518;2023-06-24T11:48:52;4.85;;;4.45;;
22904;SDS011;11619;50.140;8.518;2023-06-24T11:51:23;6.85;;;5.32;;
22904;SDS011;11619;50.140;8.518;2023-06-24T11:53:49;5.88;;;5.35;;
22904;SDS011;11619;50.140;8.518;2023-06-24T11:56:15;5.35;;;4.60;;
22904;SDS011;11619;50.140;8.518;2023-06-24T11:58:42;8.45;;;5.13;;
22904;SDS011;11619;50.140;8.518;2023-06-24T12:01:09;4.80;;;4.40;;
22904;SDS011;11619;50.140;8.518;2023-06-24T12:03:35;5.82;;;5.32;;
22904;SDS011;11619;50.140;8.518;2023-06-24T12:06:02;5.70;;;5.20;;
22904;SDS011;11619;50.140;8.518;2023-06-24T12:08:28;6.45;;;4.70;;
22904;SDS011;11619;50.140;8.518;2023-06-24T12:11:12;5.07;;;4.60;;
22904;SDS011;11619;50.140;8.518;2023-06-24T12:13:38;5.00;;;4.60;;
22904;SDS011;11619;50.140;8.518;2023-06-24T12:16:05;5.55;;;4.18;;
22904;SDS011;11619;50.140;8.518;2023-06-24T12:18:31;6.25;;;4.28;;
22904;SDS011;11619;50.140;8.518;2023-06-24T12:20:57;4.80;;;4.35;;
22904;SDS011;11619;50.140;8.518;2023-06-24T12:23:24;5.25;;;4.70;;
22904;SDS011;11619;50.140;8.518;2023-06-24T12:25:50;5.13;;;4.68;;
22904;SDS011;11619;50.140;8.518;2023-06-24T12:28:17;5.45;;;4.97;;
22904;SDS011;11619;50.140;8.518;2023-06-24T12:30:43;6.82;;;4.93;;
22904;SDS011;11619;50.140;8.518;2023-06-24T12:33:09;4.80;;;4.40;;
22904;SDS011;11619;50.140;8.518;2023-06-24T12:35:36;4.65;;;4.15;;
22904;SDS011;11619;50.140;8.518;2023-06-24T12:38:02;5.20;;;4.80;;
22904;SDS011;11619;50.140;8.518;2023-06-24T12:40:29;5.18;;;4.45;;
22904;SDS011;11619;50.140;8.518;2023-06-24T12:42:55;8.05;;;5.28;;
22904;SDS011;11619;50.140;8.518;2023-06-24T12:45:23;5.18;;;4.78;;
22904;SDS011;11619;50.140;8.518;2023-06-24T12:47:50;5.50;;;4.85;;
22904;SDS011;11619;50.140;8.518;2023-06-24T12:50:17;5.88;;;4.90;;
22904;SDS011;11619;50.140;8.518;2023-06-24T12:52:43;5.32;;;4.82;;
22904;SDS011;11619;50.140;8.518;2023-06-24T12:55:10;5.35;;;4.95;;
22904;SDS011;11619;50.140;8.518;2023-06-24T12:57:39;7.03;;;5.07;;
22904;SDS011;11619;50.140;8.518;2023-06-24T13:00:05;4.30;;;3.92;;
22904;SDS011;11619;50.140;8.518;2023-06-24T13:02:33;5.25;;;4.75;;
22904;SDS011;11619;50.140;8.518;2023-06-24T13:04:59;4.30;;;4.00;;
22904;SDS011;11619;50.140;8.518;2023-06-24T13:07:26;4.80;;;4.40;;
22904;SDS011;11619;50.140;8.518;2023-06-24T13:09:52;4.82;;;4.43;;
22904;SDS011;11619;50.140;8.518;2023-06-24T13:12:19;5.20;;;4.60;;
22904;SDS011;11619;50.140;8.518;2023-06-24T13:14:47;5.47;;;4.97;;
22904;SDS011;11619;50.140;8.518;2023-06-24T13:17:14;5.47;;;4.90;;
22904;SDS011;11619;50.140;8.518;2023-06-24T13:19:40;5.80;;;5.28;;
22904;SDS011;11619;50.140;8.518;2023-06-24T13:22:07;5.32;;;4.88;;
22904;SDS011;11619;50.140;8.518;2023-06-24T13:24:33;4.95;;;4.55;;
22904;SDS011;11619;50.140;8.518;2023-06-24T13:27:00;4.88;;;4.47;;
22904;SDS011;11619;50.140;8.518;2023-06-24T13:29:26;4.60;;;4.20;;
22904;SDS011;11619;50.140;8.518;2023-06-24T13:31:53;5.97;;;5.00;;
22904;SDS011;11619;50.140;8.518;2023-06-24T13:34:20;5.28;;;4.82;;
22904;SDS011;11619;50.140;8.518;2023-06-24T13:36:46;5.22;;;4.70;;
22904;SDS011;11619;50.140;8.518;2023-06-24T13:39:14;4.75;;;4.35;;
22904;SDS011;11619;50.140;8.518;2023-06-24T13:41:44;5.20;;;4.70;;
22904;SDS011;11619;50.140;8.518;2023-06-24T13:44:10;4.78;;;4.20;;
22904;SDS011;11619;50.140;8.518;2023-06-24T13:46:37;4.85;;;4.35;;
22904;SDS011;11619;50.140;8.518;2023-06-24T13:49:03;4.57;;;4.10;;
22904;SDS011;11619;50.140;8.518;2023-06-24T13:51:31;5.28;;;4.60;;
22904;SDS011;11619;50.140;8.518;2023-06-24T13:53:58;5.55;;;4.30;;
22904;SDS011;11619;50.140;8.518;2023-06-24T13:56:24;4.75;;;4.35;;
22904;SDS011;11619;50.140;8.518;2023-06-24T13:58:52;5.07;;;4.47;;
22904;SDS011;11619;50.140;8.518;2023-06-24T14:01:19;4.63;;;4.22;;
22904;SDS011;11619;50.140;8.518;2023-06-24T14:03:46;5.38;;;4.65;;
22904;SDS011;11619;50.140;8.518;2023-06-24T14:06:16;5.28;;;4.78;;
22904;SDS011;11619;50.140;8.518;2023-06-24T14:08:44;4.93;;;4.43;;
22904;SDS011;11619;50.140;8.518;2023-06-24T14:11:11;5.43;;;5.03;;
22904;SDS011;11619;50.140;8.518;2023-06-24T14:13:37;5.00;;;4.60;;
22904;SDS011;11619;50.140;8.518;2023-06-24T14:16:04;4.22;;;3.83;;
22904;SDS011;11619;50.140;8.518;2023-06-24T14:18:31;4.93;;;4.53;;
22904;SDS011;11619;50.140;8.518;2023-06-24T14:20:58;5.03;;;4.63;;
22904;SDS011;11619;50.140;8.518;2023-06-24T14:23:25;5.60;;;4.55;;
22904;SDS011;11619;50.140;8.518;2023-06-24T14:25:52;12.63;;;4.65;;
22904;SDS011;11619;50.140;8.518;2023-06-24T14:28:19;4.97;;;4.45;;
22904;SDS011;11619;50.140;8.518;2023-06-24T14:30:46;4.82;;;4.43;;
22904;SDS011;11619;50.140;8.518;2023-06-24T14:33:12;5.00;;;4.60;;
22904;SDS011;11619;50.140;8.518;2023-06-24T14:35:40;8.77;;;4.43;;
22904;SDS011;11619;50.140;8.518;2023-06-24T14:38:07;5.57;;;4.15;;
22904;SDS011;11619;50.140;8.518;2023-06-24T14:40:33;4.65;;;4.00;;
22904;SDS011;11619;50.140;8.518;2023-06-24T14:43:00;4.72;;;4.32;;
22904;SDS011;11619;50.140;8.518;2023-06-24T14:45:28;4.95;;;4.45;;
22904;SDS011;11619;50.140;8.518;2023-06-24T14:47:55;5.15;;;4.65;;
22904;SDS011;11619;50.140;8.518;2023-06-24T14:50:23;5.00;;;4.13;;
22904;SDS011;11619;50.140;8.518;2023-06-24T14:52:49;4.90;;;4.30;;
22904;SDS011;11619;50.140;8.518;2023-06-24T14:55:16;4.88;;;4.38;;
22904;SDS011;11619;50.140;8.518;2023-06-24T14:57:42;4.85;;;4.38;;
22904;SDS011;11619;50.140;8.518;2023-06-24T15:00:09;4.63;;;4.22;;
22904;SDS011;11619;50.140;8.518;2023-06-24T15:02:36;5.45;;;4.53;;
22904;SDS011;11619;50.140;8.518;2023-06-24T15:05:02;4.90;;;4.50;;
22904;SDS011;11619;50.140;8.518;2023-06-24T15:07:29;4.82;;;4.38;;
22904;SDS011;11619;50.140;8.518;2023-06-24T15:09:56;4.57;;;4.18;;
22904;SDS011;11619;50.140;8.518;2023-06-24T15:12:22;4.82;;;4.43;;